Time;durP1;ratioP1;P1;durP2;ratioP2;P2;SDS_P1;SDS_P2;PMS_P1;PMS_P2;Temp;Humidity;BMP_temperature;BMP_pressure;BME280_temperature;BME280_humidity;BME280_pressure;Samples;Min_cycle;Max_cycle;Signal;HPM_P1;HPM_P2
2020/12/24 00:00:34;;;;;;;1.20;0.68;;;;;;;23.66;45.01;100529.06;4974578;28;97175;-52
2020/12/24 00:02:59;;;;;;;2.33;1.00;;;;;;;23.65;44.86;100528.19;4971020;28;112016;-53
2020/12/24 00:05:24;;;;;;;1.45;0.70;;;;;;;23.65;44.88;100532.66;4962814;28;96838;-53
2020/12/24 00:07:50;;;;;;;1.40;0.60;;;;;;;23.64;45.25;100523.81;4972531;28;97484;-52
2020/12/24 00:10:16;;;;;;;1.80;0.63;;;;;;;23.65;44.89;100524.66;4973004;28;125318;-53
2020/12/24 00:12:41;;;;;;;2.17;0.70;;;;;;;23.65;45.06;100516.69;4972052;28;96833;-52
2020/12/24 00:15:07;;;;;;;1.52;0.60;;;;;;;23.65;44.75;100519.34;4970963;28;97586;-52
2020/12/24 00:17:33;;;;;;;1.92;0.80;;;;;;;23.64;45.01;100523.81;4969393;28;119364;-52
2020/12/24 00:19:58;;;;;;;1.13;0.60;;;;;;;23.63;44.77;100514.09;4972114;28;97039;-53
2020/12/24 00:22:24;;;;;;;1.38;0.60;;;;;;;23.63;44.78;100518.56;4967490;28;96791;-52
2020/12/24 00:24:49;;;;;;;1.52;0.60;;;;;;;23.63;44.89;100513.22;4970371;28;96828;-52
2020/12/24 00:27:14;;;;;;;1.75;0.60;;;;;;;23.63;44.76;100510.56;4970758;28;101008;-52
2020/12/24 00:29:40;;;;;;;1.92;0.82;;;;;;;23.63;44.85;100506.09;4974016;28;99632;-53
2020/12/24 00:32:06;;;;;;;1.83;0.60;;;;;;;23.63;44.69;100508.75;4966382;28;96777;-52
2020/12/24 00:34:31;;;;;;;2.38;0.77;;;;;;;23.64;44.27;100499.00;4967424;28;96805;-52
2020/12/24 00:36:56;;;;;;;1.80;0.82;;;;;;;23.63;44.81;100498.13;4968909;28;97564;-52
2020/12/24 00:39:22;;;;;;;2.20;0.68;;;;;;;23.64;44.56;100499.00;4969582;28;126393;-52
2020/12/24 00:41:48;;;;;;;1.30;0.60;;;;;;;23.63;44.59;100484.81;4971891;28;96972;-52
2020/12/24 00:44:13;;;;;;;2.03;0.80;;;;;;;23.64;44.84;100491.00;4972061;28;96851;-52
2020/12/24 00:46:38;;;;;;;1.85;0.70;;;;;;;23.64;44.52;100491.88;4964075;28;126674;-52
2020/12/24 00:49:04;;;;;;;2.13;0.73;;;;;;;23.63;44.66;100492.78;4965652;28;97040;-52
2020/12/24 00:51:29;;;;;;;0.93;0.73;;;;;;;23.64;44.51;100493.69;4967763;28;97082;-52
2020/12/24 00:53:55;;;;;;;2.08;0.70;;;;;;;23.64;44.69;100496.34;4967006;28;97012;-52
2020/12/24 00:56:20;;;;;;;1.27;0.60;;;;;;;23.64;44.45;100507.84;4966110;28;96947;-52
2020/12/24 00:58:59;;;;;;;1.33;0.55;;;;;;;23.64;44.64;100528.28;4965857;28;97415;-52
2020/12/24 01:01:25;;;;;;;1.27;0.65;;;;;;;23.63;44.60;100524.75;4972295;28;97212;-52
2020/12/24 01:03:50;;;;;;;1.45;0.63;;;;;;;23.63;44.26;100527.41;4969139;28;111717;-49
2020/12/24 01:06:16;;;;;;;1.58;0.68;;;;;;;23.63;44.23;100529.22;4966374;28;126934;-50
2020/12/24 01:08:41;;;;;;;1.63;0.70;;;;;;;23.62;44.56;100520.38;4968407;28;97314;-50
2020/12/24 01:11:06;;;;;;;1.88;0.70;;;;;;;23.62;44.42;100522.13;4938088;28;98048;-50
2020/12/24 01:13:32;;;;;;;1.80;0.70;;;;;;;23.62;44.56;100524.81;4971431;28;96697;-50
2020/12/24 01:15:57;;;;;;;1.13;0.60;;;;;;;23.62;44.39;100519.47;4972439;28;97601;-50
2020/12/24 01:18:23;;;;;;;1.52;0.60;;;;;;;23.61;44.32;100512.44;4966652;28;126340;-50
2020/12/24 01:20:48;;;;;;;1.90;0.70;;;;;;;23.60;44.27;100510.72;4976473;28;96950;-50
2020/12/24 01:23:14;;;;;;;1.83;0.70;;;;;;;23.60;44.35;100514.25;4987721;28;97721;-50
2020/12/24 01:25:39;;;;;;;1.27;0.70;;;;;;;23.59;44.23;100509.84;4973376;28;97371;-50
2020/12/24 01:28:04;;;;;;;1.65;0.50;;;;;;;23.59;44.00;100504.53;4976537;28;125208;-50
2020/12/24 01:30:30;;;;;;;1.73;0.85;;;;;;;23.59;44.10;100506.34;4972974;28;96971;-49
2020/12/24 01:32:55;;;;;;;1.48;0.80;;;;;;;23.59;44.06;100506.34;4971032;28;96939;-50
2020/12/24 01:35:21;;;;;;;0.85;0.50;;;;;;;23.59;44.30;100506.34;4962581;28;119630;-50
2020/12/24 01:37:46;;;;;;;1.13;0.60;;;;;;;23.58;43.96;100497.47;4955607;28;98104;-49
2020/12/24 01:40:12;;;;;;;1.75;0.60;;;;;;;23.58;43.93;100500.13;4970004;28;96812;-50
2020/12/24 01:42:37;;;;;;;1.15;0.60;;;;;;;23.58;44.00;100502.78;4975362;28;113035;-50
2020/12/24 01:45:03;;;;;;;2.33;0.80;;;;;;;23.57;43.91;100504.59;4971083;28;115408;-49
2020/12/24 01:47:29;;;;;;;1.20;0.40;;;;;;;23.57;44.13;100506.41;4967555;28;125794;-50
2020/12/24 01:49:54;;;;;;;1.70;0.70;;;;;;;23.57;43.77;100509.06;4967232;28;109043;-49
2020/12/24 01:52:34;;;;;;;1.75;0.50;;;;;;;23.54;44.03;100509.19;4972436;28;96814;-50
2020/12/24 01:55:01;;;;;;;1.20;0.52;;;;;;;23.56;44.04;100507.31;4944186;28;99566;-50
2020/12/24 01:57:26;;;;;;;1.15;0.40;;;;;;;23.55;43.97;100502.94;4969055;28;97459;-50
2020/12/24 01:59:53;;;;;;;1.88;0.63;;;;;;;23.55;43.86;100500.28;4970597;28;97002;-50
2020/12/24 02:02:19;;;;;;;1.30;0.57;;;;;;;23.56;43.98;100504.66;4969490;28;97172;-49
2020/12/24 02:04:44;;;;;;;1.10;0.43;;;;;;;23.54;43.82;100499.41;4966857;28;126973;-49
2020/12/24 02:07:09;;;;;;;1.65;0.55;;;;;;;23.56;43.95;100491.34;4964730;28;126541;-49
2020/12/24 02:09:35;;;;;;;1.10;0.50;;;;;;;23.55;43.98;100495.81;4963488;28;97859;-49
2020/12/24 02:12:02;;;;;;;1.55;0.60;;;;;;;23.55;43.68;100493.16;4964767;28;111521;-49
2020/12/24 02:14:27;;;;;;;1.02;0.40;;;;;;;23.56;43.60;100491.34;4968906;28;97493;-50
2020/12/24 02:16:53;;;;;;;1.35;0.60;;;;;;;23.55;43.69;100487.84;4972182;28;102964;-49
2020/12/24 02:19:18;;;;;;;1.20;0.40;;;;;;;23.55;43.65;100493.16;4981001;28;111916;-50
2020/12/24 02:21:43;;;;;;;0.95;0.50;;;;;;;23.56;43.66;100504.66;4968460;28;110233;-50
2020/12/24 02:26:36;;;;;;;1.15;0.50;;;;;;;23.56;43.49;100499.34;4975070;28;96944;-50
2020/12/24 02:29:02;;;;;;;1.33;0.60;;;;;;;23.57;43.43;100498.41;4979434;28;110240;-49
2020/12/24 02:31:27;;;;;;;2.22;0.70;;;;;;;23.55;43.73;100494.97;4977511;28;98544;-48
2020/12/24 02:33:53;;;;;;;0.88;0.50;;;;;;;23.54;43.57;100486.09;4978303;28;126613;-48
2020/12/24 02:36:18;;;;;;;1.92;0.70;;;;;;;23.55;43.54;100484.31;4979420;28;121151;-48
2020/12/24 02:38:44;;;;;;;1.05;0.55;;;;;;;23.53;43.50;100473.75;4982046;28;96647;-48
2020/12/24 02:41:09;;;;;;;1.20;0.47;;;;;;;23.54;43.60;100479.91;4982138;28;96805;-48
2020/12/24 02:43:34;;;;;;;1.00;0.40;;;;;;;23.53;43.28;100480.88;4978021;28;126927;-49
2020/12/24 02:46:00;;;;;;;1.15;0.60;;;;;;;23.53;43.44;100483.53;4977332;28;99868;-48
2020/12/24 02:48:26;;;;;;;0.80;0.40;;;;;;;23.53;43.72;100488.84;4977486;28;112944;-48
2020/12/24 02:50:51;;;;;;;1.27;0.52;;;;;;;23.52;43.67;100487.97;4992435;28;112580;-48
2020/12/24 02:53:16;;;;;;;1.45;0.60;;;;;;;23.51;43.78;100480.94;4995785;28;97853;-50
2020/12/24 02:55:42;;;;;;;2.75;0.80;;;;;;;23.51;43.56;100474.72;4980302;28;127099;-49
2020/12/24 02:58:07;;;;;;;1.48;0.65;;;;;;;23.51;43.35;100477.38;4978910;28;111757;-49
2020/12/24 03:00:33;;;;;;;2.03;0.68;;;;;;;23.50;43.62;100479.19;4979421;28;111229;-49
2020/12/24 03:02:58;;;;;;;1.27;1.13;;;;;;;23.50;43.54;100483.66;4977699;28;110592;-48
2020/12/24 03:05:24;;;;;;;2.05;0.68;;;;;;;23.50;43.52;100475.69;4981146;28;98738;-49
2020/12/24 03:07:50;;;;;;;1.30;0.70;;;;;;;23.50;43.19;100476.53;4980966;28;112539;-49
2020/12/24 03:10:15;;;;;;;1.00;0.55;;;;;;;23.49;43.17;100460.63;4992943;28;97012;-48
2020/12/24 03:12:41;;;;;;;2.05;0.80;;;;;;;23.50;43.16;100478.34;4991904;28;97530;-48
2020/12/24 03:15:06;;;;;;;1.10;0.70;;;;;;;23.49;43.12;100476.59;4980755;28;98630;-48
2020/12/24 03:17:32;;;;;;;1.67;0.50;;;;;;;23.48;43.21;100470.44;4983583;28;110483;-49
2020/12/24 03:19:57;;;;;;;1.70;0.55;;;;;;;23.48;43.32;100472.25;4978248;28;97478;-48
2020/12/24 03:22:23;;;;;;;1.92;0.60;;;;;;;23.48;43.42;100467.78;4983428;28;108247;-49
2020/12/24 03:24:48;;;;;;;1.85;0.60;;;;;;;23.48;43.09;100478.41;4977645;28;97184;-48
2020/12/24 03:27:13;;;;;;;1.08;0.50;;;;;;;23.48;43.14;100469.56;4979099;28;96831;-48
2020/12/24 03:29:39;;;;;;;2.13;0.80;;;;;;;23.47;43.24;100466.03;4976419;28;111706;-49
2020/12/24 03:32:04;;;;;;;1.77;0.80;;;;;;;23.47;43.23;100470.50;4980329;28;107630;-48
2020/12/24 03:34:30;;;;;;;1.45;0.55;;;;;;;23.46;43.30;100472.31;4982324;28;97248;-49
2020/12/24 03:36:55;;;;;;;1.20;0.50;;;;;;;23.47;43.16;100475.81;4976237;28;112829;-48
2020/12/24 03:39:21;;;;;;;1.60;0.63;;;;;;;23.46;43.29;100477.63;4975977;28;113101;-49
2020/12/24 03:41:46;;;;;;;1.27;0.75;;;;;;;23.47;43.22;100473.16;4985769;28;99440;-50
2020/12/24 03:44:11;;;;;;;1.63;0.68;;;;;;;23.47;43.39;100470.50;4982759;28;97862;-49
2020/12/24 03:46:38;;;;;;;2.13;0.85;;;;;;;23.47;43.13;100478.47;4982877;28;106100;-48
2020/12/24 03:49:04;;;;;;;1.50;0.60;;;;;;;23.47;43.30;100474.00;4988010;28;97212;-48
2020/12/24 03:51:29;;;;;;;1.88;0.80;;;;;;;23.48;42.96;100472.25;4975378;28;125007;-49
2020/12/24 03:53:54;;;;;;;2.60;0.80;;;;;;;23.50;43.04;100476.53;4975887;28;97360;-48
2020/12/24 03:56:20;;;;;;;1.50;0.60;;;;;;;23.50;43.05;100479.19;4978589;28;96852;-49
2020/12/24 03:58:45;;;;;;;1.08;0.60;;;;;;;23.50;43.26;100473.88;4978659;28;97162;-48
2020/12/24 04:01:11;;;;;;;2.38;0.80;;;;;;;23.51;43.03;100475.63;4977975;28;100515;-48
2020/12/24 04:03:36;;;;;;;2.33;0.95;;;;;;;23.52;42.96;100479.13;4976531;28;126353;-49
2020/12/24 04:06:04;;;;;;;1.65;0.60;;;;;;;23.53;42.88;100479.06;4977200;28;113317;-49
2020/12/24 04:08:29;;;;;;;1.15;0.70;;;;;;;23.53;42.82;100473.75;4976183;28;97156;-48
2020/12/24 04:10:54;;;;;;;2.00;0.68;;;;;;;23.53;42.94;100473.75;4974615;28;126788;-48
2020/12/24 04:13:20;;;;;;;1.60;0.70;;;;;;;23.55;42.68;100465.69;4974137;28;127907;-48
2020/12/24 04:15:45;;;;;;;2.08;0.70;;;;;;;23.55;42.96;100468.34;4985528;28;96757;-49
2020/12/24 04:18:11;;;;;;;1.08;0.60;;;;;;;23.55;42.99;100458.56;4988772;28;111539;-49
2020/12/24 04:20:36;;;;;;;1.33;0.60;;;;;;;23.56;42.62;100462.97;4981717;28;126780;-49
2020/12/24 04:23:02;;;;;;;2.33;1.35;;;;;;;23.57;42.91;100458.50;4982652;28;127632;-48
2020/12/24 04:25:27;;;;;;;3.25;0.90;;;;;;;23.56;43.03;100468.28;4982268;28;97340;-48
2020/12/24 04:27:52;;;;;;;2.42;0.80;;;;;;;23.59;42.86;100474.38;4982987;28;105829;-49
2020/12/24 04:30:18;;;;;;;1.63;0.55;;;;;;;23.58;42.59;100465.53;4977651;28;125590;-49
2020/12/24 04:32:43;;;;;;;2.20;0.70;;;;;;;23.59;42.51;100463.75;4982362;28;97305;-49
2020/12/24 04:35:09;;;;;;;1.92;0.70;;;;;;;23.59;42.95;100461.94;4975454;28;111901;-49
2020/12/24 04:37:34;;;;;;;1.92;0.73;;;;;;;23.60;42.80;100453.03;4980359;28;111628;-49
2020/12/24 04:40:00;;;;;;;2.20;0.65;;;;;;;23.60;42.88;100455.69;4981075;28;97697;-49
2020/12/24 04:42:25;;;;;;;1.67;0.80;;;;;;;23.60;42.56;100458.34;4984623;28;114029;-49
2020/12/24 04:44:50;;;;;;;1.95;0.80;;;;;;;23.60;42.79;100454.78;4982325;28;112049;-49
2020/12/24 04:47:17;;;;;;;2.45;0.60;;;;;;;23.59;42.89;100453.09;4980663;28;108833;-49
2020/12/24 04:49:42;;;;;;;1.38;0.70;;;;;;;23.59;42.85;100463.75;4992076;28;97440;-48
2020/12/24 04:52:08;;;;;;;1.73;0.60;;;;;;;23.62;42.65;100468.91;4989700;28;126524;-48
2020/12/24 04:54:33;;;;;;;2.50;0.90;;;;;;;23.60;42.60;100460.13;4995186;28;113299;-49
2020/12/24 04:57:05;;;;;;;2.05;0.77;;;;;;;23.59;42.34;100472.59;4974015;28;96880;-49
2020/12/24 04:59:30;;;;;;;1.40;0.60;;;;;;;23.59;42.28;100466.41;4984386;28;97448;-49
2020/12/24 05:01:55;;;;;;;1.73;0.60;;;;;;;23.59;42.52;100467.25;4996537;28;126132;-48
2020/12/24 05:04:21;;;;;;;2.22;0.70;;;;;;;23.59;42.70;100479.72;4992396;28;112338;-48
2020/12/24 05:06:46;;;;;;;1.95;0.82;;;;;;;23.57;42.35;100479.78;4987898;28;97319;-48
2020/12/24 05:09:12;;;;;;;1.73;0.73;;;;;;;23.59;42.31;100482.38;4976986;28;127242;-49
2020/12/24 05:11:37;;;;;;;1.27;0.82;;;;;;;23.56;42.15;100478.03;4977787;28;126549;-49
2020/12/24 05:14:17;;;;;;;1.70;0.70;;;;;;;23.55;42.48;100479.84;4977757;28;96618;-49
2020/12/24 05:16:58;;;;;;;1.58;0.70;;;;;;;23.55;42.60;100476.34;4983603;28;96736;-48
2020/12/24 05:19:24;;;;;;;1.50;0.60;;;;;;;23.57;42.20;100477.13;4974772;28;97489;-48
2020/12/24 05:21:50;;;;;;;2.42;0.90;;;;;;;23.57;42.25;100487.78;4984675;28;97309;-48
2020/12/24 05:24:28;;;;;;;2.10;0.93;;;;;;;23.56;42.52;100480.69;4976114;28;97290;-48
2020/12/24 05:27:06;;;;;;;1.40;0.85;;;;;;;23.59;42.24;100477.91;4976726;28;96857;-49
2020/12/24 05:29:32;;;;;;;2.25;0.90;;;;;;;23.60;42.38;100481.41;4984010;28;97860;-49
2020/12/24 05:31:57;;;;;;;1.33;0.50;;;;;;;23.60;42.29;100476.97;4982432;28;126336;-49
2020/12/24 05:34:23;;;;;;;1.13;0.63;;;;;;;23.62;42.17;100480.44;4996984;28;112029;-49
2020/12/24 05:36:48;;;;;;;1.20;0.70;;;;;;;23.63;41.91;100486.59;4981785;28;96692;-48
2020/12/24 05:39:13;;;;;;;2.35;0.80;;;;;;;23.63;42.32;100482.13;4977420;28;97477;-49
2020/12/24 05:41:40;;;;;;;2.15;0.70;;;;;;;23.65;42.22;100498.03;4978072;28;106323;-48
2020/12/24 05:44:12;;;;;;;1.60;0.70;;;;;;;23.65;42.22;100501.56;5005479;28;96710;-49
2020/12/24 05:46:45;;;;;;;1.70;0.65;;;;;;;23.65;42.30;100495.38;4975637;28;96906;-49
2020/12/24 05:49:17;;;;;;;2.20;0.80;;;;;;;23.65;42.03;100503.38;4981315;28;97670;-48
2020/12/24 05:51:50;;;;;;;1.77;0.73;;;;;;;23.66;42.08;100507.78;4981229;28;97471;-48
2020/12/24 05:54:16;;;;;;;1.52;0.75;;;;;;;23.66;42.06;100508.63;4980590;28;96762;-49
2020/12/24 05:56:42;;;;;;;2.38;0.75;;;;;;;23.65;42.26;100517.53;4976715;28;96839;-49
2020/12/24 05:59:07;;;;;;;1.67;0.60;;;;;;;23.65;41.99;100506.88;4975188;28;96850;-48
2020/12/24 06:01:37;;;;;;;1.55;0.82;;;;;;;23.66;41.71;100510.44;4979685;28;97213;-49
2020/12/24 06:04:04;;;;;;;1.42;0.60;;;;;;;23.66;41.91;100510.44;4982423;28;96817;-48
2020/12/24 06:06:45;;;;;;;1.50;0.60;;;;;;;23.64;41.98;100509.66;4983553;28;96882;-49
2020/12/24 06:09:13;;;;;;;1.88;0.75;;;;;;;23.66;41.96;100524.59;4983894;28;97048;-49
2020/12/24 06:11:59;;;;;;;1.58;0.77;;;;;;;23.64;42.12;100520.28;4995833;28;97268;-48
2020/12/24 06:14:27;;;;;;;1.20;0.60;;;;;;;23.66;41.98;100531.72;4977253;28;112822;-48
2020/12/24 06:16:54;;;;;;;1.38;0.70;;;;;;;23.66;41.53;100539.72;4982559;28;96722;-48
2020/12/24 06:19:19;;;;;;;1.63;0.70;;;;;;;23.65;41.86;100567.25;4984076;28;105038;-48
2020/12/24 06:21:44;;;;;;;2.60;0.65;;;;;;;23.66;41.68;100587.66;4994217;28;126958;-49
2020/12/24 06:24:10;;;;;;;1.48;0.55;;;;;;;23.66;41.82;100614.28;4993761;28;96716;-48
2020/12/24 06:26:39;;;;;;;1.48;0.80;;;;;;;23.65;41.67;100626.69;4977231;28;97377;-48
2020/12/24 06:29:04;;;;;;;2.00;0.80;;;;;;;23.65;41.92;100634.69;4992969;28;98722;-48
2020/12/24 06:31:30;;;;;;;2.08;0.60;;;;;;;23.66;41.92;100638.25;4976410;28;97207;-49
2020/12/24 06:33:56;;;;;;;2.15;0.80;;;;;;;23.66;41.52;100649.75;4992573;28;113400;-50
2020/12/24 06:36:40;;;;;;;1.45;0.50;;;;;;;23.65;41.85;100650.66;4993711;28;97236;-48
2020/12/24 06:39:05;;;;;;;1.23;0.50;;;;;;;23.67;41.71;100656.81;4985026;28;99472;-49
2020/12/24 06:41:36;;;;;;;1.40;0.60;;;;;;;23.67;41.84;100663.91;4978890;28;126569;-48
2020/12/24 06:44:01;;;;;;;1.58;0.80;;;;;;;23.67;41.43;100672.78;4987969;28;98039;-48
2020/12/24 06:46:27;;;;;;;1.67;0.63;;;;;;;23.67;41.76;100670.13;4980590;28;110175;-48
2020/12/24 06:49:03;;;;;;;1.20;0.50;;;;;;;23.66;41.39;100675.50;4981067;28;97482;-49
2020/12/24 06:51:45;;;;;;;1.45;0.60;;;;;;;23.65;41.44;100682.63;4980675;28;98685;-49
2020/12/24 06:54:20;;;;;;;1.55;0.70;;;;;;;23.66;41.75;100687.03;4980090;28;97235;-48
2020/12/24 06:56:46;;;;;;;1.33;0.50;;;;;;;23.67;41.62;100696.75;4992802;28;96847;-49
2020/12/24 06:59:17;;;;;;;1.13;0.63;;;;;;;23.67;41.34;100702.06;4982388;28;97503;-47
2020/12/24 07:01:43;;;;;;;1.25;0.70;;;;;;;23.68;41.37;100713.59;4979707;28;98843;-48
2020/12/24 07:04:08;;;;;;;1.42;0.57;;;;;;;23.68;41.39;100719.75;4974469;28;109348;-48
2020/12/24 07:06:40;;;;;;;0.73;0.50;;;;;;;23.68;41.24;100721.56;4981897;28;96908;-48
2020/12/24 07:09:06;;;;;;;1.65;0.50;;;;;;;23.69;41.42;100732.16;4986989;28;97478;-48
2020/12/24 07:11:42;;;;;;;1.25;0.50;;;;;;;23.69;41.27;100740.16;4984623;28;116143;-50
2020/12/24 07:14:27;;;;;;;1.23;0.40;;;;;;;23.68;41.50;100737.53;4996346;28;96709;-48
2020/12/24 07:16:53;;;;;;;0.52;0.30;;;;;;;23.70;41.33;100741.00;4986961;28;97088;-48
2020/12/24 07:19:19;;;;;;;1.00;0.30;;;;;;;23.69;41.12;100753.47;4992576;28;97329;-48
2020/12/24 07:21:51;;;;;;;1.08;0.55;;;;;;;23.69;41.10;100755.22;4977309;28;97227;-48
2020/12/24 07:24:25;;;;;;;0.70;0.40;;;;;;;23.69;41.20;100752.56;4980667;28;97278;-48
2020/12/24 07:26:50;;;;;;;;;;;;;;;23.67;41.53;100760.66;4996245;28;97185;-49
2020/12/24 07:29:17;;;;;;;0.90;0.50;;;;;;;23.70;41.06;100768.47;4991967;28;126927;-48
2020/12/24 07:31:43;;;;;;;0.68;0.40;;;;;;;23.70;41.16;100781.81;4980918;28;97157;-49
2020/12/24 07:34:09;;;;;;;0.65;0.40;;;;;;;23.69;40.91;100785.41;4986392;28;98065;-48
2020/12/24 07:36:35;;;;;;;0.82;0.50;;;;;;;23.69;40.99;100795.19;4982093;28;105544;-48
2020/12/24 07:39:00;;;;;;;1.00;0.60;;;;;;;23.68;41.17;100809.44;4986094;28;97499;-49
2020/12/24 07:41:26;;;;;;;0.88;0.40;;;;;;;23.67;41.14;100821.91;4984005;28;126497;-48
2020/12/24 07:43:51;;;;;;;0.80;0.50;;;;;;;23.67;41.21;100829.88;4974535;28;110740;-48
2020/12/24 07:46:20;;;;;;;0.75;0.45;;;;;;;23.67;40.92;100826.34;4991545;28;96912;-49
2020/12/24 07:48:46;;;;;;;0.73;0.50;;;;;;;23.67;41.15;100832.53;4982806;28;104704;-48
2020/12/24 07:51:12;;;;;;;0.40;0.40;;;;;;;23.67;40.88;100829.00;4982004;28;97248;-49
2020/12/24 07:53:37;;;;;;;1.40;0.60;;;;;;;23.66;41.15;100849.44;4976898;28;96887;-49
2020/12/24 07:56:08;;;;;;;0.63;0.55;;;;;;;23.67;40.93;100851.19;4978959;28;111785;-49
2020/12/24 07:58:34;;;;;;;0.40;0.40;;;;;;;23.67;40.80;100867.16;4987817;28;97425;-49
2020/12/24 08:01:04;;;;;;;0.85;0.60;;;;;;;23.67;41.01;100868.94;4962314;28;97305;-50
2020/12/24 08:03:29;;;;;;;0.90;0.38;;;;;;;23.68;40.85;100874.19;4984098;28;97788;-50
2020/12/24 08:06:05;;;;;;;1.02;0.40;;;;;;;23.68;40.80;100876.00;4984499;28;97192;-49
2020/12/24 08:08:35;;;;;;;0.52;0.43;;;;;;;23.69;40.79;100878.63;4977684;28;97674;-50
2020/12/24 08:11:06;;;;;;;0.60;0.30;;;;;;;23.69;40.69;100878.63;4991447;28;97496;-50
2020/12/24 08:13:31;;;;;;;0.70;0.50;;;;;;;23.70;40.72;100879.47;4992982;28;96784;-50
2020/12/24 08:15:57;;;;;;;0.90;0.50;;;;;;;23.70;41.03;100882.13;4981144;28;111826;-50
2020/12/24 08:18:29;;;;;;;2.85;0.30;;;;;;;23.71;40.83;100892.72;4981964;28;97411;-49
2020/12/24 08:21:31;;;;;;;0.55;0.38;;;;;;;23.70;40.77;100890.97;4990179;28;98509;-49
2020/12/24 08:23:59;;;;;;;0.70;0.35;;;;;;;23.72;40.84;100901.56;4944563;28;96876;-49
2020/12/24 08:26:24;;;;;;;0.80;0.30;;;;;;;23.72;40.72;100909.56;5019642;22;96847;-50
2020/12/24 08:28:58;;;;;;;1.38;0.50;;;;;;;23.71;40.84;100907.84;4991285;28;117884;-53
2020/12/24 08:31:24;;;;;;;0.40;0.25;;;;;;;23.73;40.46;100911.31;4981554;28;97274;-53
2020/12/24 08:33:51;;;;;;;3.15;0.38;;;;;;;23.74;40.66;100915.69;4973129;28;104004;-50
2020/12/24 08:36:26;;;;;;;2.50;0.40;;;;;;;23.73;40.53;100925.47;4981729;28;97115;-54
2020/12/24 08:38:52;;;;;;;0.30;0.20;;;;;;;23.75;40.64;100939.59;4983906;28;97562;-55
2020/12/24 08:41:22;;;;;;;1.33;0.30;;;;;;;23.77;40.50;100944.88;4970377;28;109826;-50
2020/12/24 08:43:54;;;;;;;2.38;0.30;;;;;;;23.77;40.83;100951.03;4976169;28;96901;-54
2020/12/24 08:46:23;;;;;;;2.00;0.40;;;;;;;23.81;40.40;100957.16;4980314;28;96929;-54
2020/12/24 08:48:48;;;;;;;3.60;0.45;;;;;;;23.82;40.72;100968.69;4978620;28;111097;-53
2020/12/24 08:51:16;;;;;;;1.40;0.40;;;;;;;23.84;40.32;100970.34;4981150;28;97239;-54
2020/12/24 08:53:41;;;;;;;1.83;0.40;;;;;;;23.86;40.28;100980.94;4993558;28;97169;-53
2020/12/24 08:56:13;;;;;;;1.23;0.50;;;;;;;23.84;37.44;100989.00;4981502;28;96958;-54
2020/12/24 08:58:54;;;;;;;2.70;0.60;;;;;;;23.70;36.81;100986.00;4981139;28;97457;-46
2020/12/24 09:01:20;;;;;;;2.75;0.50;;;;;;;23.62;36.16;100991.63;4990642;28;97364;-50
2020/12/24 09:03:46;;;;;;;1.10;0.60;;;;;;;23.48;35.37;100997.50;4979427;28;107280;-51
2020/12/24 09:06:15;;;;;;;1.42;0.50;;;;;;;23.30;34.81;101012.38;4977654;28;96628;-51
2020/12/24 09:08:41;;;;;;;3.42;0.60;;;;;;;23.14;34.89;101011.22;4983011;28;97509;-51
2020/12/24 09:11:28;;;;;;;1.33;0.50;;;;;;;22.97;34.78;101019.78;4991295;28;97130;-50
2020/12/24 09:14:04;;;;;;;3.50;0.70;;;;;;;22.89;35.10;101020.06;4981468;28;96829;-49
2020/12/24 09:16:34;;;;;;;3.63;0.70;;;;;;;22.86;35.26;101028.13;4983159;28;96629;-49
2020/12/24 09:19:06;;;;;;;1.63;0.50;;;;;;;22.82;35.13;101029.19;4986625;28;97469;-49
2020/12/24 09:21:33;;;;;;;3.08;0.60;;;;;;;22.78;34.79;101038.16;4975003;28;98223;-51
2020/12/24 09:24:08;;;;;;;2.95;0.70;;;;;;;22.67;33.88;101043.00;4977640;28;96838;-52
2020/12/24 09:26:53;;;;;;;3.88;0.68;;;;;;;22.51;33.70;101045.31;4974993;28;96943;-52
2020/12/24 09:29:22;;;;;;;2.78;0.50;;;;;;;22.36;34.27;101052.88;4989993;28;115022;-52
2020/12/24 09:31:55;;;;;;;6.53;0.80;;;;;;;22.28;34.28;101060.25;4992056;28;97315;-52
2020/12/24 09:34:21;;;;;;;6.25;0.57;;;;;;;22.28;34.61;101068.25;4977787;28;96838;-52
2020/12/24 09:36:47;;;;;;;2.85;0.50;;;;;;;22.27;34.54;101079.78;4986107;28;96771;-53
2020/12/24 09:39:13;;;;;;;1.98;0.40;;;;;;;22.27;34.93;101084.22;4978927;28;97393;-53
2020/12/24 09:41:42;;;;;;;3.28;0.60;;;;;;;22.30;34.82;101090.31;4978433;28;122119;-53
2020/12/24 09:44:08;;;;;;;4.03;0.88;;;;;;;22.34;34.95;101078.66;4987517;28;96831;-53
2020/12/24 09:46:33;;;;;;;3.33;0.80;;;;;;;22.40;35.32;101081.09;4994448;28;96960;-53
2020/12/24 09:48:59;;;;;;;3.50;0.85;;;;;;;22.45;35.42;101086.28;4985619;28;99158;-53
2020/12/24 09:51:24;;;;;;;2.65;0.52;;;;;;;22.51;35.41;101087.84;4980998;28;101252;-53
2020/12/24 09:53:50;;;;;;;3.75;0.50;;;;;;;22.56;35.57;101096.53;4987104;28;100318;-53
2020/12/24 09:56:19;;;;;;;1.67;0.70;;;;;;;22.61;35.48;101098.13;4990134;28;97592;-53
2020/12/24 09:58:44;;;;;;;2.45;0.60;;;;;;;22.67;35.27;101101.50;4977928;28;97430;-53
2020/12/24 10:01:10;;;;;;;2.63;0.50;;;;;;;22.72;35.50;101116.38;4974596;28;126499;-53
2020/12/24 10:03:35;;;;;;;0.65;0.30;;;;;;;22.77;35.62;101130.38;4989825;28;113070;-53
2020/12/24 10:06:01;;;;;;;1.02;0.40;;;;;;;22.82;35.81;101124.91;4980183;28;97341;-53
2020/12/24 10:08:26;;;;;;;4.50;0.73;;;;;;;22.86;35.75;101129.19;4990595;28;127254;-53
2020/12/24 10:10:52;;;;;;;3.85;0.75;;;;;;;22.91;35.63;101129.91;4993301;28;115079;-53
2020/12/24 10:13:17;;;;;;;5.30;0.60;;;;;;;22.94;35.43;101132.47;4983278;28;96804;-53
2020/12/24 10:15:44;;;;;;;5.40;0.60;;;;;;;22.97;35.41;101135.00;4977195;28;112684;-53
2020/12/24 10:18:10;;;;;;;2.38;0.50;;;;;;;22.99;35.26;101145.59;4977671;28;112642;-53
2020/12/24 10:20:35;;;;;;;2.25;0.60;;;;;;;23.03;35.40;101138.38;4976116;28;97239;-54
2020/12/24 10:23:01;;;;;;;4.07;1.02;;;;;;;23.05;35.37;101142.78;4986262;28;111916;-53
2020/12/24 10:25:26;;;;;;;5.38;0.70;;;;;;;23.08;35.57;101141.78;4982185;28;96972;-54
2020/12/24 10:27:52;;;;;;;3.20;0.70;;;;;;;23.10;35.33;101146.16;4977327;28;97439;-53
2020/12/24 10:30:17;;;;;;;1.35;0.60;;;;;;;23.13;35.42;101142.50;4979131;28;126536;-53
2020/12/24 10:32:43;;;;;;;1.90;0.70;;;;;;;23.15;35.41;101149.50;4992945;28;112252;-53
2020/12/24 10:35:08;;;;;;;2.25;0.63;;;;;;;23.18;35.53;101151.19;4979594;28;96970;-53
2020/12/24 10:37:34;;;;;;;3.25;0.40;;;;;;;23.19;35.43;101148.50;4990697;28;126686;-53
2020/12/24 10:39:59;;;;;;;3.67;0.60;;;;;;;23.22;35.76;101150.16;4986293;28;97339;-54
2020/12/24 10:42:25;;;;;;;2.15;0.40;;;;;;;23.23;35.56;101143.91;4991626;28;97270;-53
2020/12/24 10:44:50;;;;;;;3.53;0.50;;;;;;;23.24;35.43;101140.31;4981456;28;110873;-54
2020/12/24 10:47:16;;;;;;;2.70;0.80;;;;;;;23.28;35.52;101151.72;5031443;22;127281;-51
2020/12/24 10:49:41;;;;;;;2.38;0.60;;;;;;;23.29;35.67;101137.50;4993440;28;113843;-51
2020/12/24 10:52:11;;;;;;;1.55;0.40;;;;;;;23.30;35.51;101155.22;4988266;28;96629;-51
2020/12/24 10:54:36;;;;;;;1.23;0.40;;;;;;;23.31;35.28;101148.97;4993133;28;97244;-51
2020/12/24 10:57:02;;;;;;;5.93;1.33;;;;;;;23.31;35.60;101154.28;4994339;28;97451;-50
2020/12/24 10:59:27;;;;;;;2.00;0.60;;;;;;;23.30;35.68;101161.41;4981970;28;126591;-51
2020/12/24 11:01:53;;;;;;;1.85;0.55;;;;;;;23.31;35.65;101160.47;4992217;28;97245;-51
2020/12/24 11:04:19;;;;;;;2.38;0.90;;;;;;;23.32;35.65;101161.34;4993129;28;112642;-51
2020/12/24 11:06:45;;;;;;;3.75;0.82;;;;;;;23.32;35.71;101156.91;4995568;28;97471;-51
2020/12/24 11:09:11;;;;;;;4.25;0.60;;;;;;;23.33;35.78;101163.97;4996053;28;97143;-51
2020/12/24 11:11:37;;;;;;;2.28;0.60;;;;;;;23.33;35.57;101158.66;4995865;28;96706;-51
2020/12/24 11:14:02;;;;;;;3.70;0.57;;;;;;;23.34;35.50;101168.34;4994934;28;97165;-51
2020/12/24 11:16:28;;;;;;;2.58;0.55;;;;;;;23.35;35.69;101164.78;4982249;28;125578;-51
2020/12/24 11:18:53;;;;;;;1.80;0.50;;;;;;;23.35;35.86;101164.78;4978416;28;97256;-51
2020/12/24 11:21:19;;;;;;;2.17;0.35;;;;;;;23.36;35.63;101168.31;4977481;28;109189;-51
2020/12/24 11:23:45;;;;;;;5.25;0.70;;;;;;;23.36;35.57;101165.63;4976598;28;111683;-51